sensor_id;sensor_type;location;lat;lon;timestamp;P1;durP1;ratioP1;P2;durP2;ratioP2
27618;SDS011;15039;50.830;4.730;2022-11-14T00:00:36;12.50;;;8.77;;
27618;SDS011;15039;50.830;4.730;2022-11-14T00:03:04;12.38;;;7.72;;
27618;SDS011;15039;50.830;4.730;2022-11-14T00:05:31;8.63;;;6.80;;
27618;SDS011;15039;50.830;4.730;2022-11-14T00:07:57;11.65;;;7.43;;
27618;SDS011;15039;50.830;4.730;2022-11-14T00:10:24;10.27;;;7.22;;
27618;SDS011;15039;50.830;4.730;2022-11-14T00:12:49;8.38;;;6.75;;
27618;SDS011;15039;50.830;4.730;2022-11-14T00:15:15;7.70;;;5.95;;
27618;SDS011;15039;50.830;4.730;2022-11-14T00:17:41;8.07;;;6.72;;
27618;SDS011;15039;50.830;4.730;2022-11-14T00:20:07;8.60;;;6.75;;
27618;SDS011;15039;50.830;4.730;2022-11-14T00:22:34;10.60;;;7.60;;
27618;SDS011;15039;50.830;4.730;2022-11-14T00:25:00;9.05;;;7.05;;
27618;SDS011;15039;50.830;4.730;2022-11-14T00:27:25;9.48;;;7.40;;
27618;SDS011;15039;50.830;4.730;2022-11-14T00:29:51;10.48;;;7.45;;
27618;SDS011;15039;50.830;4.730;2022-11-14T00:32:17;10.15;;;7.65;;
27618;SDS011;15039;50.830;4.730;2022-11-14T00:34:44;12.48;;;7.10;;
27618;SDS011;15039;50.830;4.730;2022-11-14T00:37:09;11.23;;;7.47;;
27618;SDS011;15039;50.830;4.730;2022-11-14T00:39:35;10.20;;;7.57;;
27618;SDS011;15039;50.830;4.730;2022-11-14T00:42:01;9.40;;;7.20;;
27618;SDS011;15039;50.830;4.730;2022-11-14T00:44:26;8.25;;;7.30;;
27618;SDS011;15039;50.830;4.730;2022-11-14T00:46:52;8.10;;;6.93;;
27618;SDS011;15039;50.830;4.730;2022-11-14T00:49:17;10.25;;;7.47;;
27618;SDS011;15039;50.830;4.730;2022-11-14T00:51:43;8.27;;;6.60;;
27618;SDS011;15039;50.830;4.730;2022-11-14T00:54:09;9.48;;;7.05;;
27618;SDS011;15039;50.830;4.730;2022-11-14T00:56:34;9.10;;;6.93;;
27618;SDS011;15039;50.830;4.730;2022-11-14T00:59:00;9.07;;;7.32;;
27618;SDS011;15039;50.830;4.730;2022-11-14T01:01:25;8.60;;;6.50;;
27618;SDS011;15039;50.830;4.730;2022-11-14T01:03:51;10.15;;;6.97;;
27618;SDS011;15039;50.830;4.730;2022-11-14T01:06:17;8.43;;;6.78;;
27618;SDS011;15039;50.830;4.730;2022-11-14T01:08:43;8.77;;;7.28;;
27618;SDS011;15039;50.830;4.730;2022-11-14T01:11:10;9.50;;;6.78;;
27618;SDS011;15039;50.830;4.730;2022-11-14T01:13:40;9.13;;;7.20;;
27618;SDS011;15039;50.830;4.730;2022-11-14T01:16:06;8.73;;;7.70;;
27618;SDS011;15039;50.830;4.730;2022-11-14T01:18:32;11.38;;;8.00;;
27618;SDS011;15039;50.830;4.730;2022-11-14T01:20:58;11.60;;;8.38;;
27618;SDS011;15039;50.830;4.730;2022-11-14T01:23:24;10.80;;;8.45;;
27618;SDS011;15039;50.830;4.730;2022-11-14T01:25:50;12.27;;;8.57;;
27618;SDS011;15039;50.830;4.730;2022-11-14T01:28:17;14.27;;;10.00;;
27618;SDS011;15039;50.830;4.730;2022-11-14T01:30:43;10.48;;;8.75;;
27618;SDS011;15039;50.830;4.730;2022-11-14T01:33:09;12.73;;;9.13;;
27618;SDS011;15039;50.830;4.730;2022-11-14T01:35:36;14.18;;;9.77;;
27618;SDS011;15039;50.830;4.730;2022-11-14T01:38:03;10.93;;;9.43;;
27618;SDS011;15039;50.830;4.730;2022-11-14T01:40:30;14.05;;;8.82;;
27618;SDS011;15039;50.830;4.730;2022-11-14T01:45:52;9.85;;;8.32;;
27618;SDS011;15039;50.830;4.730;2022-11-14T01:48:23;10.40;;;8.05;;
27618;SDS011;15039;50.830;4.730;2022-11-14T01:50:57;8.52;;;7.63;;
27618;SDS011;15039;50.830;4.730;2022-11-14T01:53:32;9.43;;;7.75;;
27618;SDS011;15039;50.830;4.730;2022-11-14T01:55:59;8.32;;;7.28;;
27618;SDS011;15039;50.830;4.730;2022-11-14T01:58:27;8.48;;;7.13;;
27618;SDS011;15039;50.830;4.730;2022-11-14T02:00:55;9.55;;;6.95;;
27618;SDS011;15039;50.830;4.730;2022-11-14T02:03:21;9.65;;;8.20;;
27618;SDS011;15039;50.830;4.730;2022-11-14T02:05:48;10.20;;;7.53;;
27618;SDS011;15039;50.830;4.730;2022-11-14T02:08:15;9.27;;;7.32;;
27618;SDS011;15039;50.830;4.730;2022-11-14T02:10:41;8.13;;;7.20;;
27618;SDS011;15039;50.830;4.730;2022-11-14T02:13:07;8.82;;;7.03;;
27618;SDS011;15039;50.830;4.730;2022-11-14T02:15:32;8.60;;;7.13;;
27618;SDS011;15039;50.830;4.730;2022-11-14T02:17:59;8.32;;;6.93;;
27618;SDS011;15039;50.830;4.730;2022-11-14T02:20:26;9.27;;;8.13;;
27618;SDS011;15039;50.830;4.730;2022-11-14T02:22:56;8.48;;;7.20;;
27618;SDS011;15039;50.830;4.730;2022-11-14T02:25:22;8.90;;;7.47;;
27618;SDS011;15039;50.830;4.730;2022-11-14T02:27:48;10.38;;;7.35;;
27618;SDS011;15039;50.830;4.730;2022-11-14T02:30:16;8.75;;;6.85;;
27618;SDS011;15039;50.830;4.730;2022-11-14T02:32:43;8.48;;;7.15;;
27618;SDS011;15039;50.830;4.730;2022-11-14T02:35:09;8.48;;;6.68;;
27618;SDS011;15039;50.830;4.730;2022-11-14T02:37:35;8.73;;;6.90;;
27618;SDS011;15039;50.830;4.730;2022-11-14T02:40:01;7.90;;;7.10;;
27618;SDS011;15039;50.830;4.730;2022-11-14T02:42:27;11.27;;;7.15;;
27618;SDS011;15039;50.830;4.730;2022-11-14T02:44:52;8.82;;;6.93;;
27618;SDS011;15039;50.830;4.730;2022-11-14T02:47:18;8.20;;;7.07;;
27618;SDS011;15039;50.830;4.730;2022-11-14T02:49:44;10.05;;;6.85;;
27618;SDS011;15039;50.830;4.730;2022-11-14T02:52:09;7.97;;;6.40;;
27618;SDS011;15039;50.830;4.730;2022-11-14T02:54:35;8.13;;;6.70;;
27618;SDS011;15039;50.830;4.730;2022-11-14T02:57:01;7.88;;;6.50;;
27618;SDS011;15039;50.830;4.730;2022-11-14T02:59:26;7.50;;;6.70;;
27618;SDS011;15039;50.830;4.730;2022-11-14T03:01:52;9.70;;;7.78;;
27618;SDS011;15039;50.830;4.730;2022-11-14T03:04:18;8.48;;;7.40;;
27618;SDS011;15039;50.830;4.730;2022-11-14T03:06:43;9.90;;;7.22;;
27618;SDS011;15039;50.830;4.730;2022-11-14T03:09:09;7.93;;;6.53;;
27618;SDS011;15039;50.830;4.730;2022-11-14T03:11:35;8.80;;;5.97;;
27618;SDS011;15039;50.830;4.730;2022-11-14T03:14:00;8.32;;;6.60;;
27618;SDS011;15039;50.830;4.730;2022-11-14T03:16:26;7.35;;;6.45;;
27618;SDS011;15039;50.830;4.730;2022-11-14T03:18:52;9.95;;;7.38;;
27618;SDS011;15039;50.830;4.730;2022-11-14T03:21:18;9.95;;;7.85;;
27618;SDS011;15039;50.830;4.730;2022-11-14T03:23:45;10.18;;;8.20;;
27618;SDS011;15039;50.830;4.730;2022-11-14T03:26:11;8.75;;;7.07;;
27618;SDS011;15039;50.830;4.730;2022-11-14T03:28:38;8.32;;;6.78;;
27618;SDS011;15039;50.830;4.730;2022-11-14T03:31:05;7.45;;;6.55;;
27618;SDS011;15039;50.830;4.730;2022-11-14T03:33:31;8.02;;;6.43;;
27618;SDS011;15039;50.830;4.730;2022-11-14T03:35:59;7.88;;;6.43;;
27618;SDS011;15039;50.830;4.730;2022-11-14T03:38:24;7.85;;;6.70;;
27618;SDS011;15039;50.830;4.730;2022-11-14T03:40:50;8.43;;;6.65;;
27618;SDS011;15039;50.830;4.730;2022-11-14T03:43:17;11.25;;;6.70;;
27618;SDS011;15039;50.830;4.730;2022-11-14T03:45:43;7.32;;;6.30;;
27618;SDS011;15039;50.830;4.730;2022-11-14T03:48:09;7.97;;;6.53;;
27618;SDS011;15039;50.830;4.730;2022-11-14T03:50:35;7.03;;;6.15;;
27618;SDS011;15039;50.830;4.730;2022-11-14T03:53:01;7.53;;;6.15;;
27618;SDS011;15039;50.830;4.730;2022-11-14T03:55:27;8.52;;;6.70;;
27618;SDS011;15039;50.830;4.730;2022-11-14T03:57:52;7.30;;;6.55;;
27618;SDS011;15039;50.830;4.730;2022-11-14T04:00:18;7.28;;;5.95;;
27618;SDS011;15039;50.830;4.730;2022-11-14T04:02:44;8.93;;;6.32;;
27618;SDS011;15039;50.830;4.730;2022-11-14T04:05:10;7.72;;;6.28;;
27618;SDS011;15039;50.830;4.730;2022-11-14T04:07:36;6.53;;;5.35;;
27618;SDS011;15039;50.830;4.730;2022-11-14T04:10:01;6.32;;;5.53;;
27618;SDS011;15039;50.830;4.730;2022-11-14T04:12:27;6.25;;;5.05;;
27618;SDS011;15039;50.830;4.730;2022-11-14T04:14:52;5.57;;;4.90;;
27618;SDS011;15039;50.830;4.730;2022-11-14T04:17:18;6.13;;;4.85;;
27618;SDS011;15039;50.830;4.730;2022-11-14T04:19:44;5.18;;;4.68;;
27618;SDS011;15039;50.830;4.730;2022-11-14T04:22:09;6.95;;;4.47;;
27618;SDS011;15039;50.830;4.730;2022-11-14T04:24:35;5.65;;;4.88;;
27618;SDS011;15039;50.830;4.730;2022-11-14T04:27:00;5.32;;;4.38;;
27618;SDS011;15039;50.830;4.730;2022-11-14T04:29:26;7.15;;;4.72;;
27618;SDS011;15039;50.830;4.730;2022-11-14T04:31:52;5.28;;;4.43;;
27618;SDS011;15039;50.830;4.730;2022-11-14T04:34:17;5.97;;;4.85;;
27618;SDS011;15039;50.830;4.730;2022-11-14T04:36:43;6.30;;;4.30;;
27618;SDS011;15039;50.830;4.730;2022-11-14T04:39:08;4.90;;;4.40;;
27618;SDS011;15039;50.830;4.730;2022-11-14T04:41:34;5.55;;;4.78;;
27618;SDS011;15039;50.830;4.730;2022-11-14T04:44:00;6.50;;;5.18;;
27618;SDS011;15039;50.830;4.730;2022-11-14T04:46:25;8.30;;;4.85;;
27618;SDS011;15039;50.830;4.730;2022-11-14T04:48:51;5.45;;;4.85;;
27618;SDS011;15039;50.830;4.730;2022-11-14T04:51:17;5.72;;;4.43;;
27618;SDS011;15039;50.830;4.730;2022-11-14T04:53:42;5.35;;;4.60;;
27618;SDS011;15039;50.830;4.730;2022-11-14T04:56:08;6.05;;;4.88;;
27618;SDS011;15039;50.830;4.730;2022-11-14T04:58:34;7.18;;;5.22;;
27618;SDS011;15039;50.830;4.730;2022-11-14T05:01:05;5.63;;;4.75;;
27618;SDS011;15039;50.830;4.730;2022-11-14T05:03:32;7.18;;;4.47;;
27618;SDS011;15039;50.830;4.730;2022-11-14T05:06:01;6.20;;;5.20;;
27618;SDS011;15039;50.830;4.730;2022-11-14T05:10:53;7.45;;;5.07;;
27618;SDS011;15039;50.830;4.730;2022-11-14T05:13:18;6.75;;;4.90;;
27618;SDS011;15039;50.830;4.730;2022-11-14T05:15:44;5.80;;;5.20;;
27618;SDS011;15039;50.830;4.730;2022-11-14T05:18:10;6.93;;;5.13;;
27618;SDS011;15039;50.830;4.730;2022-11-14T05:20:36;5.38;;;4.88;;
27618;SDS011;15039;50.830;4.730;2022-11-14T05:23:01;7.90;;;5.57;;
27618;SDS011;15039;50.830;4.730;2022-11-14T05:25:27;6.47;;;4.97;;
27618;SDS011;15039;50.830;4.730;2022-11-14T05:27:53;5.90;;;5.20;;
27618;SDS011;15039;50.830;4.730;2022-11-14T05:30:19;5.38;;;4.88;;
27618;SDS011;15039;50.830;4.730;2022-11-14T05:32:44;6.20;;;5.05;;
27618;SDS011;15039;50.830;4.730;2022-11-14T05:35:10;6.10;;;4.95;;
27618;SDS011;15039;50.830;4.730;2022-11-14T05:37:36;6.18;;;5.35;;
27618;SDS011;15039;50.830;4.730;2022-11-14T05:40:02;7.78;;;5.45;;
27618;SDS011;15039;50.830;4.730;2022-11-14T05:42:29;8.88;;;5.53;;
27618;SDS011;15039;50.830;4.730;2022-11-14T05:44:54;8.52;;;5.45;;
27618;SDS011;15039;50.830;4.730;2022-11-14T05:47:20;6.53;;;5.45;;
27618;SDS011;15039;50.830;4.730;2022-11-14T05:49:45;7.50;;;6.18;;
27618;SDS011;15039;50.830;4.730;2022-11-14T05:52:11;9.35;;;6.43;;
27618;SDS011;15039;50.830;4.730;2022-11-14T05:54:37;6.75;;;5.68;;
27618;SDS011;15039;50.830;4.730;2022-11-14T05:57:03;7.50;;;6.00;;
27618;SDS011;15039;50.830;4.730;2022-11-14T05:59:29;7.10;;;6.20;;
27618;SDS011;15039;50.830;4.730;2022-11-14T06:01:55;8.35;;;6.25;;
27618;SDS011;15039;50.830;4.730;2022-11-14T06:04:21;8.98;;;6.40;;
27618;SDS011;15039;50.830;4.730;2022-11-14T06:06:47;7.47;;;6.03;;
27618;SDS011;15039;50.830;4.730;2022-11-14T06:09:12;8.02;;;6.05;;
27618;SDS011;15039;50.830;4.730;2022-11-14T06:11:38;7.57;;;5.90;;
27618;SDS011;15039;50.830;4.730;2022-11-14T06:14:04;6.93;;;5.85;;
27618;SDS011;15039;50.830;4.730;2022-11-14T06:16:29;7.10;;;5.68;;
27618;SDS011;15039;50.830;4.730;2022-11-14T06:18:55;7.50;;;6.07;;
27618;SDS011;15039;50.830;4.730;2022-11-14T06:21:22;9.75;;;5.95;;
27618;SDS011;15039;50.830;4.730;2022-11-14T06:23:49;6.82;;;6.03;;
27618;SDS011;15039;50.830;4.730;2022-11-14T06:26:19;7.65;;;6.20;;
27618;SDS011;15039;50.830;4.730;2022-11-14T06:28:49;6.35;;;5.60;;
27618;SDS011;15039;50.830;4.730;2022-11-14T06:31:16;9.43;;;6.20;;
27618;SDS011;15039;50.830;4.730;2022-11-14T06:33:42;6.75;;;5.80;;
27618;SDS011;15039;50.830;4.730;2022-11-14T06:36:10;10.23;;;5.60;;
27618;SDS011;15039;50.830;4.730;2022-11-14T06:38:36;8.48;;;6.30;;
27618;SDS011;15039;50.830;4.730;2022-11-14T06:41:07;7.78;;;6.30;;
27618;SDS011;15039;50.830;4.730;2022-11-14T06:43:41;7.75;;;6.22;;
27618;SDS011;15039;50.830;4.730;2022-11-14T06:46:09;7.00;;;5.88;;
27618;SDS011;15039;50.830;4.730;2022-11-14T06:48:37;6.70;;;5.57;;
27618;SDS011;15039;50.830;4.730;2022-11-14T06:51:03;7.50;;;5.97;;
27618;SDS011;15039;50.830;4.730;2022-11-14T06:53:31;7.00;;;5.57;;
27618;SDS011;15039;50.830;4.730;2022-11-14T06:56:05;7.70;;;5.50;;
27618;SDS011;15039;50.830;4.730;2022-11-14T06:58:32;8.68;;;7.03;;
27618;SDS011;15039;50.830;4.730;2022-11-14T07:01:20;8.02;;;6.28;;
27618;SDS011;15039;50.830;4.730;2022-11-14T07:03:46;8.10;;;5.93;;
27618;SDS011;15039;50.830;4.730;2022-11-14T07:06:13;9.63;;;6.18;;
27618;SDS011;15039;50.830;4.730;2022-11-14T07:08:40;8.05;;;5.70;;
27618;SDS011;15039;50.830;4.730;2022-11-14T07:11:09;8.75;;;5.93;;
27618;SDS011;15039;50.830;4.730;2022-11-14T07:13:37;8.35;;;6.88;;
27618;SDS011;15039;50.830;4.730;2022-11-14T07:16:03;9.88;;;5.82;;
27618;SDS011;15039;50.830;4.730;2022-11-14T07:18:30;9.45;;;5.97;;
27618;SDS011;15039;50.830;4.730;2022-11-14T07:20:59;7.10;;;5.60;;
27618;SDS011;15039;50.830;4.730;2022-11-14T07:23:29;9.43;;;6.05;;
27618;SDS011;15039;50.830;4.730;2022-11-14T07:25:59;8.77;;;5.68;;
27618;SDS011;15039;50.830;4.730;2022-11-14T07:28:30;7.85;;;5.43;;
27618;SDS011;15039;50.830;4.730;2022-11-14T07:30:58;12.90;;;5.50;;
27618;SDS011;15039;50.830;4.730;2022-11-14T07:33:26;21.77;;;7.13;;
27618;SDS011;15039;50.830;4.730;2022-11-14T07:35:51;49.13;;;8.65;;
27618;SDS011;15039;50.830;4.730;2022-11-14T07:38:17;76.45;;;13.88;;
27618;SDS011;15039;50.830;4.730;2022-11-14T07:40:51;69.85;;;12.65;;
27618;SDS011;15039;50.830;4.730;2022-11-14T07:43:19;73.40;;;11.93;;
27618;SDS011;15039;50.830;4.730;2022-11-14T07:45:45;69.25;;;13.25;;
27618;SDS011;15039;50.830;4.730;2022-11-14T07:48:11;43.50;;;12.32;;
27618;SDS011;15039;50.830;4.730;2022-11-14T07:50:36;54.47;;;13.23;;
27618;SDS011;15039;50.830;4.730;2022-11-14T07:53:02;55.38;;;12.93;;
27618;SDS011;15039;50.830;4.730;2022-11-14T07:55:28;53.10;;;12.25;;
27618;SDS011;15039;50.830;4.730;2022-11-14T07:57:53;40.22;;;9.45;;
27618;SDS011;15039;50.830;4.730;2022-11-14T08:00:19;34.13;;;10.35;;
27618;SDS011;15039;50.830;4.730;2022-11-14T08:02:46;18.70;;;8.05;;
27618;SDS011;15039;50.830;4.730;2022-11-14T08:05:11;19.60;;;7.93;;
27618;SDS011;15039;50.830;4.730;2022-11-14T08:07:37;12.60;;;6.43;;
27618;SDS011;15039;50.830;4.730;2022-11-14T08:10:03;15.00;;;6.95;;
27618;SDS011;15039;50.830;4.730;2022-11-14T08:12:30;8.52;;;6.72;;
27618;SDS011;15039;50.830;4.730;2022-11-14T08:14:55;16.75;;;7.22;;
27618;SDS011;15039;50.830;4.730;2022-11-14T08:17:21;15.05;;;7.60;;
27618;SDS011;15039;50.830;4.730;2022-11-14T08:19:47;13.55;;;7.65;;
27618;SDS011;15039;50.830;4.730;2022-11-14T08:22:14;10.05;;;7.95;;
27618;SDS011;15039;50.830;4.730;2022-11-14T08:24:39;11.45;;;7.70;;
27618;SDS011;15039;50.830;4.730;2022-11-14T08:27:05;10.52;;;7.25;;
27618;SDS011;15039;50.830;4.730;2022-11-14T08:29:31;9.05;;;7.15;;
27618;SDS011;15039;50.830;4.730;2022-11-14T08:31:56;8.50;;;6.85;;
27618;SDS011;15039;50.830;4.730;2022-11-14T08:34:22;10.50;;;7.25;;
27618;SDS011;15039;50.830;4.730;2022-11-14T08:36:48;9.98;;;7.15;;
27618;SDS011;15039;50.830;4.730;2022-11-14T08:39:14;8.13;;;6.88;;
27618;SDS011;15039;50.830;4.730;2022-11-14T08:41:40;7.43;;;6.05;;
27618;SDS011;15039;50.830;4.730;2022-11-14T08:44:05;9.52;;;5.88;;
27618;SDS011;15039;50.830;4.730;2022-11-14T08:46:31;6.88;;;5.50;;
27618;SDS011;15039;50.830;4.730;2022-11-14T08:48:57;9.07;;;6.05;;
27618;SDS011;15039;50.830;4.730;2022-11-14T08:51:22;7.00;;;5.43;;
27618;SDS011;15039;50.830;4.730;2022-11-14T08:53:48;6.40;;;5.25;;
27618;SDS011;15039;50.830;4.730;2022-11-14T08:56:16;7.15;;;5.32;;
27618;SDS011;15039;50.830;4.730;2022-11-14T08:58:42;6.28;;;5.32;;
27618;SDS011;15039;50.830;4.730;2022-11-14T09:01:08;6.93;;;5.60;;
27618;SDS011;15039;50.830;4.730;2022-11-14T09:03:34;7.28;;;5.05;;
27618;SDS011;15039;50.830;4.730;2022-11-14T09:05:59;8.35;;;5.40;;
27618;SDS011;15039;50.830;4.730;2022-11-14T09:08:26;6.55;;;5.20;;
27618;SDS011;15039;50.830;4.730;2022-11-14T09:10:52;5.75;;;5.25;;
27618;SDS011;15039;50.830;4.730;2022-11-14T09:13:18;8.55;;;6.30;;
27618;SDS011;15039;50.830;4.730;2022-11-14T09:15:44;8.10;;;5.78;;
27618;SDS011;15039;50.830;4.730;2022-11-14T09:18:10;6.45;;;5.13;;
27618;SDS011;15039;50.830;4.730;2022-11-14T09:20:36;8.23;;;6.30;;
27618;SDS011;15039;50.830;4.730;2022-11-14T09:23:02;7.85;;;5.95;;
27618;SDS011;15039;50.830;4.730;2022-11-14T09:25:29;10.18;;;5.88;;
27618;SDS011;15039;50.830;4.730;2022-11-14T09:27:55;6.85;;;5.60;;
27618;SDS011;15039;50.830;4.730;2022-11-14T09:30:21;9.68;;;6.38;;
27618;SDS011;15039;50.830;4.730;2022-11-14T09:32:47;6.68;;;5.72;;
27618;SDS011;15039;50.830;4.730;2022-11-14T09:35:13;6.85;;;5.80;;
27618;SDS011;15039;50.830;4.730;2022-11-14T09:37:39;6.32;;;5.55;;
27618;SDS011;15039;50.830;4.730;2022-11-14T09:40:05;7.40;;;6.20;;
27618;SDS011;15039;50.830;4.730;2022-11-14T09:45:10;8.25;;;6.30;;
27618;SDS011;15039;50.830;4.730;2022-11-14T09:47:38;8.30;;;6.63;;
27618;SDS011;15039;50.830;4.730;2022-11-14T09:50:28;7.07;;;6.20;;
27618;SDS011;15039;50.830;4.730;2022-11-14T09:52:59;11.30;;;6.65;;
27618;SDS011;15039;50.830;4.730;2022-11-14T09:57:55;8.00;;;6.38;;
27618;SDS011;15039;50.830;4.730;2022-11-14T10:00:26;7.63;;;6.63;;
27618;SDS011;15039;50.830;4.730;2022-11-14T10:03:16;9.05;;;6.43;;
27618;SDS011;15039;50.830;4.730;2022-11-14T10:09:02;10.13;;;7.65;;
27618;SDS011;15039;50.830;4.730;2022-11-14T10:11:32;7.22;;;6.45;;
27618;SDS011;15039;50.830;4.730;2022-11-14T10:22:10;12.20;;;6.90;;
27618;SDS011;15039;50.830;4.730;2022-11-14T10:27:39;9.95;;;6.95;;
27618;SDS011;15039;50.830;4.730;2022-11-14T10:30:13;9.05;;;7.22;;
27618;SDS011;15039;50.830;4.730;2022-11-14T10:35:30;8.65;;;7.10;;
27618;SDS011;15039;50.830;4.730;2022-11-14T10:40:52;11.10;;;7.55;;
27618;SDS011;15039;50.830;4.730;2022-11-14T10:43:32;9.25;;;7.43;;
27618;SDS011;15039;50.830;4.730;2022-11-14T10:46:10;10.65;;;7.60;;
27618;SDS011;15039;50.830;4.730;2022-11-14T10:48:47;10.68;;;7.07;;
27618;SDS011;15039;50.830;4.730;2022-11-14T10:51:19;9.32;;;7.45;;
27618;SDS011;15039;50.830;4.730;2022-11-14T10:54:11;9.32;;;7.32;;
27618;SDS011;15039;50.830;4.730;2022-11-14T10:57:01;10.35;;;8.23;;
27618;SDS011;15039;50.830;4.730;2022-11-14T10:59:27;12.10;;;8.07;;
27618;SDS011;15039;50.830;4.730;2022-11-14T11:01:54;10.13;;;7.93;;
27618;SDS011;15039;50.830;4.730;2022-11-14T11:04:28;10.25;;;8.38;;
27618;SDS011;15039;50.830;4.730;2022-11-14T11:09:34;13.23;;;9.27;;
27618;SDS011;15039;50.830;4.730;2022-11-14T11:12:24;10.50;;;8.68;;
27618;SDS011;15039;50.830;4.730;2022-11-14T11:15:27;13.43;;;9.95;;
27618;SDS011;15039;50.830;4.730;2022-11-14T11:18:02;12.88;;;10.52;;
27618;SDS011;15039;50.830;4.730;2022-11-14T11:20:34;13.02;;;10.45;;
27618;SDS011;15039;50.830;4.730;2022-11-14T11:25:31;13.60;;;10.40;;
27618;SDS011;15039;50.830;4.730;2022-11-14T11:28:17;15.90;;;12.85;;
27618;SDS011;15039;50.830;4.730;2022-11-14T11:31:00;16.42;;;13.00;;
27618;SDS011;15039;50.830;4.730;2022-11-14T11:33:34;18.48;;;13.13;;
27618;SDS011;15039;50.830;4.730;2022-11-14T11:36:05;15.20;;;11.05;;
27618;SDS011;15039;50.830;4.730;2022-11-14T11:38:37;14.27;;;10.32;;
27618;SDS011;15039;50.830;4.730;2022-11-14T11:44:04;13.80;;;9.35;;
27618;SDS011;15039;50.830;4.730;2022-11-14T11:57:34;12.68;;;9.85;;
27618;SDS011;15039;50.830;4.730;2022-11-14T12:00:17;12.85;;;9.43;;
27618;SDS011;15039;50.830;4.730;2022-11-14T12:05:39;14.18;;;9.32;;
27618;SDS011;15039;50.830;4.730;2022-11-14T12:10:45;14.75;;;9.70;;
27618;SDS011;15039;50.830;4.730;2022-11-14T12:27:04;16.08;;;9.88;;
27618;SDS011;15039;50.830;4.730;2022-11-14T12:30:01;14.43;;;10.48;;
27618;SDS011;15039;50.830;4.730;2022-11-14T12:32:39;13.82;;;9.73;;
27618;SDS011;15039;50.830;4.730;2022-11-14T12:35:17;13.05;;;10.20;;
27618;SDS011;15039;50.830;4.730;2022-11-14T12:37:47;14.63;;;10.07;;
27618;SDS011;15039;50.830;4.730;2022-11-14T12:40:22;13.73;;;10.10;;
27618;SDS011;15039;50.830;4.730;2022-11-14T12:42:54;13.82;;;10.57;;
27618;SDS011;15039;50.830;4.730;2022-11-14T12:48:21;13.60;;;9.95;;
27618;SDS011;15039;50.830;4.730;2022-11-14T12:50:50;12.43;;;9.32;;
27618;SDS011;15039;50.830;4.730;2022-11-14T12:54:00;20.40;;;11.30;;
27618;SDS011;15039;50.830;4.730;2022-11-14T13:11:57;15.52;;;10.18;;
27618;SDS011;15039;50.830;4.730;2022-11-14T13:15:01;15.00;;;10.23;;
27618;SDS011;15039;50.830;4.730;2022-11-14T13:18:02;16.52;;;10.45;;
27618;SDS011;15039;50.830;4.730;2022-11-14T13:21:03;12.73;;;9.80;;
27618;SDS011;15039;50.830;4.730;2022-11-14T13:23:58;14.35;;;10.57;;
27618;SDS011;15039;50.830;4.730;2022-11-14T13:28:50;13.60;;;10.30;;
27618;SDS011;15039;50.830;4.730;2022-11-14T13:39:57;16.33;;;11.70;;
27618;SDS011;15039;50.830;4.730;2022-11-14T13:43:09;13.52;;;10.02;;
27618;SDS011;15039;50.830;4.730;2022-11-14T13:48:10;15.35;;;10.98;;
27618;SDS011;15039;50.830;4.730;2022-11-14T13:50:40;18.67;;;12.30;;
27618;SDS011;15039;50.830;4.730;2022-11-14T13:53:18;16.15;;;11.32;;
27618;SDS011;15039;50.830;4.730;2022-11-14T14:12:09;16.15;;;12.07;;
27618;SDS011;15039;50.830;4.730;2022-11-14T14:25:15;16.13;;;12.48;;
27618;SDS011;15039;50.830;4.730;2022-11-14T14:30:19;16.02;;;12.35;;
27618;SDS011;15039;50.830;4.730;2022-11-14T14:35:50;20.52;;;11.88;;
27618;SDS011;15039;50.830;4.730;2022-11-14T14:38:21;15.80;;;12.45;;
27618;SDS011;15039;50.830;4.730;2022-11-14T14:40:49;18.27;;;12.98;;
27618;SDS011;15039;50.830;4.730;2022-11-14T14:45:52;14.27;;;12.23;;
27618;SDS011;15039;50.830;4.730;2022-11-14T14:48:24;16.60;;;12.40;;
27618;SDS011;15039;50.830;4.730;2022-11-14T14:50:53;16.90;;;12.30;;
27618;SDS011;15039;50.830;4.730;2022-11-14T14:53:24;15.35;;;12.23;;
27618;SDS011;15039;50.830;4.730;2022-11-14T14:55:51;14.85;;;11.15;;
27618;SDS011;15039;50.830;4.730;2022-11-14T15:00:54;15.38;;;12.23;;
27618;SDS011;15039;50.830;4.730;2022-11-14T15:03:20;14.57;;;12.45;;
27618;SDS011;15039;50.830;4.730;2022-11-14T15:05:47;15.88;;;11.98;;
27618;SDS011;15039;50.830;4.730;2022-11-14T15:08:20;16.02;;;12.85;;
27618;SDS011;15039;50.830;4.730;2022-11-14T15:10:46;16.75;;;12.50;;
27618;SDS011;15039;50.830;4.730;2022-11-14T15:13:13;17.45;;;13.98;;
27618;SDS011;15039;50.830;4.730;2022-11-14T15:15:41;16.00;;;13.98;;
27618;SDS011;15039;50.830;4.730;2022-11-14T15:18:21;16.48;;;14.35;;
27618;SDS011;15039;50.830;4.730;2022-11-14T15:21:08;16.70;;;14.18;;
27618;SDS011;15039;50.830;4.730;2022-11-14T15:23:35;18.08;;;13.95;;
27618;SDS011;15039;50.830;4.730;2022-11-14T15:26:03;16.77;;;14.00;;
27618;SDS011;15039;50.830;4.730;2022-11-14T15:28:41;16.92;;;14.27;;
27618;SDS011;15039;50.830;4.730;2022-11-14T15:31:11;17.17;;;13.38;;
27618;SDS011;15039;50.830;4.730;2022-11-14T15:33:42;17.92;;;14.15;;
27618;SDS011;15039;50.830;4.730;2022-11-14T15:36:12;17.58;;;15.30;;
27618;SDS011;15039;50.830;4.730;2022-11-14T15:38:56;17.23;;;15.07;;
27618;SDS011;15039;50.830;4.730;2022-11-14T15:41:30;18.15;;;14.75;;
27618;SDS011;15039;50.830;4.730;2022-11-14T15:43:57;16.35;;;14.10;;
27618;SDS011;15039;50.830;4.730;2022-11-14T15:49:06;16.50;;;13.43;;
27618;SDS011;15039;50.830;4.730;2022-11-14T15:54:03;15.32;;;13.52;;
27618;SDS011;15039;50.830;4.730;2022-11-14T15:56:29;16.90;;;14.40;;
27618;SDS011;15039;50.830;4.730;2022-11-14T15:58:55;16.73;;;14.43;;
27618;SDS011;15039;50.830;4.730;2022-11-14T16:01:21;16.10;;;13.70;;
27618;SDS011;15039;50.830;4.730;2022-11-14T16:03:51;18.88;;;13.63;;
27618;SDS011;15039;50.830;4.730;2022-11-14T16:06:17;17.45;;;14.10;;
27618;SDS011;15039;50.830;4.730;2022-11-14T16:08:43;19.30;;;14.75;;
27618;SDS011;15039;50.830;4.730;2022-11-14T16:11:08;17.30;;;14.75;;
27618;SDS011;15039;50.830;4.730;2022-11-14T16:13:34;20.48;;;15.18;;
27618;SDS011;15039;50.830;4.730;2022-11-14T16:15:59;18.90;;;15.38;;
27618;SDS011;15039;50.830;4.730;2022-11-14T16:18:25;18.20;;;14.82;;
27618;SDS011;15039;50.830;4.730;2022-11-14T16:20:51;17.25;;;15.35;;
27618;SDS011;15039;50.830;4.730;2022-11-14T16:23:16;17.63;;;15.45;;
27618;SDS011;15039;50.830;4.730;2022-11-14T16:25:42;17.98;;;15.05;;
27618;SDS011;15039;50.830;4.730;2022-11-14T16:28:08;19.40;;;14.90;;
27618;SDS011;15039;50.830;4.730;2022-11-14T16:30:33;18.33;;;15.05;;
27618;SDS011;15039;50.830;4.730;2022-11-14T16:32:59;19.75;;;16.00;;
27618;SDS011;15039;50.830;4.730;2022-11-14T16:35:25;17.35;;;15.45;;
27618;SDS011;15039;50.830;4.730;2022-11-14T16:37:51;16.65;;;14.82;;
27618;SDS011;15039;50.830;4.730;2022-11-14T16:40:23;19.15;;;15.27;;
27618;SDS011;15039;50.830;4.730;2022-11-14T16:42:53;18.30;;;15.30;;
27618;SDS011;15039;50.830;4.730;2022-11-14T16:45:20;20.00;;;16.42;;
27618;SDS011;15039;50.830;4.730;2022-11-14T16:47:46;18.60;;;14.95;;
27618;SDS011;15039;50.830;4.730;2022-11-14T16:50:12;18.63;;;15.13;;
27618;SDS011;15039;50.830;4.730;2022-11-14T16:52:38;18.45;;;15.52;;
27618;SDS011;15039;50.830;4.730;2022-11-14T16:55:04;19.15;;;13.98;;
27618;SDS011;15039;50.830;4.730;2022-11-14T16:57:31;14.63;;;12.80;;
27618;SDS011;15039;50.830;4.730;2022-11-14T16:59:57;16.58;;;13.90;;
27618;SDS011;15039;50.830;4.730;2022-11-14T17:02:23;16.48;;;13.10;;
27618;SDS011;15039;50.830;4.730;2022-11-14T17:04:49;16.45;;;13.63;;
27618;SDS011;15039;50.830;4.730;2022-11-14T17:07:15;18.05;;;14.00;;
27618;SDS011;15039;50.830;4.730;2022-11-14T17:09:41;17.63;;;13.52;;